Flight Track Log - Related Links

Times and Time Zones

All times are in EDT time to prevent confusion due to time zone crossing. See the CPT7563 flight status page for this flight to view local times or setup timezone preferences in your user account.

Time Position Orientation Groundspeed Altitude Reporting Facility
EDT Latitude Longitude Course Direction KTS MPH feet Rate Location/Type
Thu 07:57:13 PM 48.2344 -100.8333 95° East 161 185 8,000  Level Minneapolis Center
Thu 07:58:15 PM 48.2308 -100.7708 95° East 158 182 8,000 919 Level Minneapolis Center
Thu 07:59:17 PM 48.2242 -100.6950 97° East 157 181 9,900 1,161 Climbing Minneapolis Center
Thu 08:00:19 PM 48.2225 -100.6250 92° East 165 190 10,400 435 Climbing Minneapolis Center
Thu 08:01:21 PM 48.2217 -100.5528 91° East 170 196 10,800 290 Climbing Minneapolis Center
Thu 08:02:23 PM 48.2169 -100.4797 96° East 173 199 11,000 96 Climbing Minneapolis Center
Thu 08:03:26 PM 48.2106 -100.3992 97° East 183 211 11,000  Level Minneapolis Center
Thu 08:04:28 PM 48.2067 -100.3169 94° East 191 220 11,000  Level Minneapolis Center
Thu 08:05:30 PM 48.2025 -100.2214 94° East 193 222 11,000  Level Minneapolis Center
Thu 08:06:32 PM 48.1981 -100.1408 95° East 193 222 11,000  Level Minneapolis Center
Thu 08:07:34 PM 48.1922 -100.0594 96° East 195 224 11,000  Level Minneapolis Center
Thu 08:08:36 PM 48.1864 -99.9778 96° East 196 226 11,000  Level Minneapolis Center
Thu 08:09:38 PM 48.1817 -99.8983 95° East 195 224 11,000  Level Minneapolis Center
Thu 08:10:40 PM 48.1764 -99.8169 96° East 195 224 11,000  Level Minneapolis Center
Thu 08:11:42 PM 48.1719 -99.7194 94° East 196 226 11,000 48 Level Minneapolis Center
Thu 08:12:44 PM 48.1656 -99.6389 97° East 196 226 11,100 48 Climbing Minneapolis Center
Thu 08:13:46 PM 48.1608 -99.5589 95° East 195 224 11,100  Level Minneapolis Center
Thu 08:14:48 PM 48.1547 -99.4789 97° East 194 223 11,100  Level Minneapolis Center
Thu 08:15:51 PM 48.1494 -99.3967 95° East 196 226 11,100  Level Minneapolis Center
Thu 08:16:53 PM 48.1422 -99.2983 96° East 198 228 11,100  Level Minneapolis Center
Thu 08:17:55 PM 48.1369 -99.2181 96° East 197 227 11,100  Level Minneapolis Center
Thu 08:18:57 PM 48.1308 -99.1378 96° East 195 224 11,100 -97 Level Minneapolis Center
Thu 08:19:59 PM 48.1261 -99.0564 95° East 195 224 10,900 -97 Descending Minneapolis Center
Thu 08:21:01 PM 48.1197 -98.9756 97° East 196 226 10,900  Level Minneapolis Center
Thu 08:22:03 PM 48.1147 -98.8958 95° East 195 224 10,900  Level Minneapolis Center
Thu 08:23:05 PM 48.1061 -98.8008 98° East 194 223 10,900  Level Minneapolis Center
Thu 08:24:07 PM 48.0981 -98.7203 98° East 194 223 10,900  Level Minneapolis Center
Thu 08:25:09 PM 48.0911 -98.6403 97° East 195 224 10,900  Level Minneapolis Center
Thu 08:26:12 PM 48.0839 -98.5614 98° East 194 223 10,900  Level Minneapolis Center
Thu 08:27:14 PM 48.0753 -98.4819 99° East 193 222 10,900  Level Minneapolis Center
Thu 08:28:16 PM 48.0675 -98.4036 98° East 192 221 10,900  Level Minneapolis Center
Thu 08:29:18 PM 48.0581 -98.3100 99° East 191 220 10,900 126 Level Minneapolis Center
Thu 08:29:51 PM 48.0567 -98.2697 93° East 191 220 11,100 128 Climbing Minneapolis Center
Thu 08:30:52 PM 48.0472 -98.1867 100° East 193 222 11,100 -132 Level Minneapolis Center
Thu 08:31:22 PM 48.0442 -98.1525 98° East 191 220 10,900 -130 Descending Minneapolis Center
Thu 08:32:24 PM 48.0358 -98.0728 99° East 192 221 10,900 124 Level Minneapolis Center
Thu 08:32:59 PM 48.0322 -98.0206 96° East 192 221 11,100 -176 Climbing Minneapolis Center
Thu 08:34:06 PM 48.0164 -97.9356 106° East 196 226 10,600 -609 Descending Minneapolis Center
Thu 08:35:07 PM 47.9983 -97.8539 108° East 200 230 9,800 -771 Descending Minneapolis Center
Thu 08:35:55 PM 47.9836 -97.7906 109° East 201 231 9,200 -767 Descending Minneapolis Center
Thu 08:36:33 PM 47.9725 -97.7433 109° East 199 229 8,700 -608 Descending Minneapolis Center
Thu 08:37:14 PM 47.9600 -97.6883 109° East 201 231 8,400 -695 Descending Minneapolis Center
Thu 08:38:08 PM 47.9444 -97.6158 108° East 204 235 7,600 -939 Descending Minneapolis Center
Thu 08:39:09 PM 47.9242 -97.5317 110° East 209 241 6,600 -989 Descending Minneapolis Center
Thu 08:39:39 PM 47.9172 -97.5014 109° East 206 237 6,100 -1,043 Descending Minneapolis Center
Thu 08:40:41 PM 47.8983 -97.4197 109° East 207 238 5,000 -1,113 Descending Minneapolis Center
Thu 08:41:43 PM 47.8806 -97.3392 108° East 207 238 3,800 -1,210 Descending Minneapolis Center
Thu 08:42:45 PM 47.8608 -97.2456 107° East 202 232 2,500 -919 Descending Minneapolis Center
Thu 08:43:47 PM 47.8883 -97.1931 52° Northeast 175 201 1,900 -532 Descending Minneapolis Center
Thu 08:44:49 PM 47.9158 -97.1797 18° North 132 152 1,400 -484 Descending Minneapolis Center
Thu 08:45:51 PM 47.9453 -97.1853 353° North 114 131 900 -484 Descending Minneapolis Center

Login

Don't have an account? Register now (free) for customized features, flight alerts, and more!